createdAt,value
2019-05-30T00:02:14.969Z,8.03
2019-05-30T00:04:43.218Z,7.08
2019-05-30T00:07:11.497Z,7.42
2019-05-30T00:09:41.205Z,7.87
2019-05-30T00:12:09.537Z,7.35
2019-05-30T00:14:37.817Z,7.35
2019-05-30T00:17:06.102Z,7.70
2019-05-30T00:19:34.374Z,7.53
2019-05-30T00:22:03.903Z,7.40
2019-05-30T00:24:32.627Z,8.35
2019-05-30T00:27:00.864Z,8.10
2019-05-30T00:29:29.569Z,7.87
2019-05-30T00:31:57.802Z,8.98
2019-05-30T00:34:26.061Z,9.00
2019-05-30T00:36:55.574Z,8.38
2019-05-30T00:39:23.974Z,9.28
2019-05-30T00:41:52.245Z,8.45
2019-05-30T00:44:20.521Z,8.70
2019-05-30T00:46:48.777Z,8.28
2019-05-30T00:49:17.027Z,9.25
2019-05-30T00:51:45.334Z,8.50
2019-05-30T00:54:13.561Z,8.83
2019-05-30T00:56:41.846Z,9.00
2019-05-30T00:59:10.078Z,8.88
2019-05-30T01:01:38.337Z,8.60
2019-05-30T01:04:07.143Z,8.88
2019-05-30T01:06:35.624Z,9.28
2019-05-30T01:09:05.195Z,8.78
2019-05-30T01:11:33.568Z,9.35
2019-05-30T01:14:03.664Z,9.10
2019-05-30T01:16:31.790Z,8.78
2019-05-30T01:19:01.064Z,9.48
2019-05-30T01:21:29.413Z,9.05
2019-05-30T01:23:57.688Z,8.55
2019-05-30T01:26:25.961Z,9.48
2019-05-30T01:28:54.244Z,9.55
2019-05-30T01:31:22.485Z,8.70
2019-05-30T01:33:50.742Z,9.15
2019-05-30T01:36:18.979Z,8.85
2019-05-30T01:38:47.263Z,8.18
2019-05-30T01:41:17.671Z,8.80
2019-05-30T01:43:45.564Z,8.60
2019-05-30T01:46:13.806Z,8.10
2019-05-30T01:48:42.077Z,8.60
2019-05-30T01:51:10.330Z,8.50
2019-05-30T01:53:38.579Z,8.25
2019-05-30T01:56:06.871Z,8.85
2019-05-30T01:58:35.175Z,8.90
2019-05-30T02:01:19.083Z,8.63
2019-05-30T02:03:33.384Z,8.48
2019-05-30T02:06:03.091Z,8.75
2019-05-30T02:08:31.561Z,8.83
2019-05-30T02:11:01.198Z,9.13
2019-05-30T02:13:29.670Z,8.48
2019-05-30T02:15:59.483Z,8.45
2019-05-30T02:18:27.959Z,8.55
2019-05-30T02:20:56.194Z,8.65
2019-05-30T02:23:24.465Z,8.73
2019-05-30T02:25:52.728Z,9.35
2019-05-30T02:28:20.975Z,8.85
2019-05-30T02:30:49.315Z,8.35
2019-05-30T02:33:17.551Z,8.53
2019-05-30T02:35:45.805Z,8.30
2019-05-30T02:38:14.037Z,9.23
2019-05-30T02:40:42.323Z,9.13
2019-05-30T02:43:12.219Z,8.38
2019-05-30T02:45:40.791Z,8.63
2019-05-30T02:48:09.967Z,8.48
2019-05-30T02:50:39.021Z,8.73
2019-05-30T02:53:08.320Z,7.67
2019-05-30T02:55:37.272Z,8.58
2019-05-30T02:58:06.211Z,8.53
2019-05-30T03:00:36.612Z,8.58
2019-05-30T03:03:06.539Z,8.25
2019-05-30T03:05:35.257Z,8.20
2019-05-30T03:08:04.936Z,8.50
2019-05-30T03:10:33.520Z,8.00
2019-05-30T03:13:01.924Z,8.20
2019-05-30T03:15:30.296Z,7.95
2019-05-30T03:17:58.539Z,8.95
2019-05-30T03:20:26.784Z,8.68
2019-05-30T03:22:55.058Z,9.13
2019-05-30T03:25:23.292Z,7.85
2019-05-30T03:27:51.556Z,8.50
2019-05-30T03:30:27.650Z,8.25
2019-05-30T03:33:19.439Z,9.33
2019-05-30T03:35:28.356Z,9.75
2019-05-30T03:37:49.760Z,9.18
2019-05-30T03:40:19.174Z,9.28
2019-05-30T03:42:48.381Z,9.23
2019-05-30T03:45:16.784Z,9.68
2019-05-30T03:47:51.367Z,9.75
2019-05-30T03:50:19.696Z,10.60
2019-05-30T03:52:47.965Z,10.93
2019-05-30T03:55:16.745Z,10.53
2019-05-30T03:58:00.255Z,10.10
2019-05-30T04:03:25.121Z,9.43
2019-05-30T04:05:55.793Z,8.47
2019-05-30T04:08:24.065Z,9.90
2019-05-30T04:10:53.467Z,10.10
2019-05-30T04:13:24.885Z,10.70
2019-05-30T04:15:53.141Z,10.75
2019-05-30T04:18:21.435Z,9.80
2019-05-30T04:20:49.744Z,10.70
2019-05-30T04:23:19.505Z,10.60
2019-05-30T04:25:48.051Z,10.80
2019-05-30T04:28:18.364Z,10.72
2019-05-30T04:30:46.317Z,10.08
2019-05-30T04:33:26.222Z,10.75
2019-05-30T04:35:44.622Z,11.10
2019-05-30T04:38:12.910Z,11.18
2019-05-30T04:40:41.225Z,10.65
2019-05-30T04:43:10.920Z,10.90
2019-05-30T04:45:39.302Z,9.83
2019-05-30T04:48:07.559Z,10.88
2019-05-30T04:50:35.829Z,11.08
2019-05-30T04:53:04.072Z,11.70
2019-05-30T04:55:32.344Z,11.00
2019-05-30T04:58:00.613Z,10.75
2019-05-30T05:00:28.883Z,10.65
2019-05-30T05:02:57.128Z,11.03
2019-05-30T05:05:27.079Z,10.98
2019-05-30T05:07:55.528Z,10.95
2019-05-30T05:10:23.799Z,11.25
2019-05-30T05:12:52.038Z,10.93
2019-05-30T05:15:20.716Z,11.22
2019-05-30T05:17:49.066Z,10.60
2019-05-30T05:20:17.355Z,11.60
2019-05-30T05:22:45.664Z,11.30
2019-05-30T05:25:13.939Z,10.82
2019-05-30T05:27:42.169Z,11.70
2019-05-30T05:30:10.480Z,11.40
2019-05-30T05:32:38.737Z,10.72
2019-05-30T05:35:07.083Z,11.63
2019-05-30T05:37:35.337Z,10.70
2019-05-30T05:40:05.223Z,10.80
2019-05-30T05:42:35.114Z,10.40
2019-05-30T05:45:08.089Z,10.72
2019-05-30T05:47:36.390Z,10.53
2019-05-30T05:50:05.831Z,10.28
2019-05-30T05:52:34.169Z,10.50
2019-05-30T05:55:02.424Z,11.28
2019-05-30T05:57:30.697Z,10.78
2019-05-30T05:59:58.967Z,10.68
2019-05-30T06:02:27.283Z,10.93
2019-05-30T06:04:55.539Z,12.03
2019-05-30T06:07:24.582Z,11.38
2019-05-30T06:09:53.054Z,11.30
2019-05-30T06:12:21.732Z,11.35
2019-05-30T06:14:50.155Z,10.98
2019-05-30T06:17:18.977Z,11.00
2019-05-30T06:19:47.410Z,11.18
2019-05-30T06:22:15.666Z,10.23
2019-05-30T06:24:43.925Z,10.13
2019-05-30T06:27:12.225Z,10.63
2019-05-30T06:29:40.542Z,10.53
2019-05-30T06:32:08.822Z,14.98
2019-05-30T06:34:39.660Z,11.45
2019-05-30T06:37:07.157Z,11.43
2019-05-30T06:39:35.566Z,11.48
2019-05-30T06:42:03.872Z,13.00
2019-05-30T06:44:32.865Z,17.62
2019-05-30T06:47:01.121Z,12.80
2019-05-30T06:49:30.923Z,12.55
2019-05-30T06:51:59.695Z,11.08
2019-05-30T06:54:29.395Z,9.70
2019-05-30T06:56:57.875Z,9.93
2019-05-30T06:59:26.162Z,10.82
2019-05-30T07:01:54.437Z,14.87
2019-05-30T07:04:23.414Z,9.90
2019-05-30T07:06:52.836Z,10.63
2019-05-30T07:09:22.604Z,7.50
2019-05-30T07:11:50.991Z,9.23
2019-05-30T07:14:19.240Z,8.50
2019-05-30T07:16:47.557Z,7.70
2019-05-30T07:19:15.801Z,6.67
2019-05-30T07:21:44.045Z,7.10
2019-05-30T07:24:12.301Z,6.62
2019-05-30T07:26:40.546Z,6.83
2019-05-30T07:29:08.804Z,6.95
2019-05-30T07:31:37.045Z,7.08
2019-05-30T07:34:05.306Z,6.80
2019-05-30T07:36:34.468Z,6.58
2019-05-30T07:39:02.897Z,7.00
2019-05-30T07:41:31.162Z,7.47
2019-05-30T07:43:59.580Z,7.15
2019-05-30T07:46:28.945Z,7.40
2019-05-30T07:48:57.703Z,7.25
2019-05-30T07:51:26.422Z,6.72
2019-05-30T07:53:55.066Z,6.87
2019-05-30T07:56:23.498Z,5.70
2019-05-30T07:58:52.048Z,5.60
2019-05-30T08:01:21.318Z,5.40
2019-05-30T08:03:50.238Z,6.33
2019-05-30T08:06:18.985Z,5.08
2019-05-30T08:08:47.432Z,4.78
2019-05-30T08:11:16.015Z,5.20
2019-05-30T08:13:44.871Z,4.85
2019-05-30T08:16:13.492Z,5.20
2019-05-30T08:18:42.092Z,4.42
2019-05-30T08:21:10.601Z,4.53
2019-05-30T08:23:39.003Z,4.53
2019-05-30T08:26:07.700Z,5.28
2019-05-30T08:28:36.410Z,11.55
2019-05-30T08:31:05.054Z,8.60
2019-05-30T08:33:33.649Z,5.35
2019-05-30T08:36:05.548Z,7.45
2019-05-30T08:38:33.132Z,5.40
2019-05-30T08:41:01.822Z,3.50
2019-05-30T08:43:31.265Z,3.52
2019-05-30T08:45:59.793Z,11.55
2019-05-30T08:48:28.193Z,8.20
2019-05-30T08:50:56.589Z,5.60
2019-05-30T08:53:24.822Z,5.25
2019-05-30T08:55:53.137Z,3.42
2019-05-30T08:58:21.425Z,3.72
2019-05-30T09:00:49.676Z,3.50
2019-05-30T09:03:17.906Z,4.10
2019-05-30T09:05:59.277Z,3.92
2019-05-30T09:08:16.148Z,3.80
2019-05-30T09:10:44.479Z,4.78
2019-05-30T09:13:12.747Z,4.95
2019-05-30T09:15:41.153Z,4.97
2019-05-30T09:18:09.438Z,4.83
2019-05-30T09:20:38.422Z,4.40
2019-05-30T09:23:07.642Z,5.08
2019-05-30T09:25:35.906Z,5.05
2019-05-30T09:28:04.174Z,4.65
2019-05-30T09:30:32.437Z,12.37
2019-05-30T09:33:00.691Z,7.22
2019-05-30T09:35:28.948Z,6.35
2019-05-30T09:37:57.212Z,3.90
2019-05-30T09:40:25.455Z,3.10
2019-05-30T09:42:53.727Z,2.83
2019-05-30T09:45:22.122Z,3.10
2019-05-30T09:47:51.390Z,2.42
2019-05-30T09:50:20.771Z,2.70
2019-05-30T09:52:49.358Z,3.20
2019-05-30T09:55:17.889Z,2.45
2019-05-30T09:57:47.445Z,3.50
2019-05-30T10:00:20.033Z,3.37
2019-05-30T10:02:48.791Z,3.70
2019-05-30T10:05:18.186Z,3.02
2019-05-30T10:07:47.539Z,3.33
2019-05-30T10:10:17.911Z,3.58
2019-05-30T10:12:46.934Z,3.17
2019-05-30T10:15:15.611Z,10.35
2019-05-30T10:17:45.561Z,3.40
2019-05-30T10:20:13.839Z,3.05
2019-05-30T10:22:42.095Z,3.12
2019-05-30T10:25:10.335Z,3.62
2019-05-30T10:27:38.610Z,3.40
2019-05-30T10:30:08.538Z,3.60
2019-05-30T10:32:36.812Z,3.87
2019-05-30T10:35:05.687Z,11.65
2019-05-30T10:37:34.035Z,4.30
2019-05-30T10:40:02.469Z,10.25
2019-05-30T10:42:30.736Z,5.95
2019-05-30T10:44:58.977Z,4.15
2019-05-30T10:47:27.233Z,4.22
2019-05-30T10:49:55.477Z,3.05
2019-05-30T10:52:23.728Z,3.50
2019-05-30T10:54:51.960Z,3.83
2019-05-30T10:57:20.237Z,9.38
2019-05-30T10:59:48.935Z,7.40
2019-05-30T11:02:18.471Z,4.05
2019-05-30T11:04:47.678Z,4.15
2019-05-30T11:07:22.876Z,3.55
2019-05-30T11:09:57.433Z,3.20
2019-05-30T11:12:25.785Z,3.00
2019-05-30T11:14:55.285Z,3.42
2019-05-30T11:17:23.607Z,11.78
2019-05-30T11:19:52.069Z,5.42
2019-05-30T11:22:20.380Z,3.45
2019-05-30T11:24:48.636Z,3.67
2019-05-30T11:27:17.004Z,3.80
2019-05-30T11:29:45.327Z,3.40
2019-05-30T11:32:13.569Z,3.10
2019-05-30T11:34:41.867Z,3.08
2019-05-30T11:37:18.848Z,2.98
2019-05-30T11:39:40.203Z,3.08
2019-05-30T11:42:11.240Z,2.70
2019-05-30T11:44:39.474Z,9.90
2019-05-30T11:47:07.783Z,10.95
2019-05-30T11:49:36.085Z,5.62
2019-05-30T11:52:04.326Z,3.10
2019-05-30T11:54:32.577Z,3.40
2019-05-30T11:57:00.887Z,3.10
2019-05-30T11:59:29.203Z,2.80
2019-05-30T12:01:58.483Z,2.98
2019-05-30T12:04:26.905Z,2.77
2019-05-30T12:06:55.160Z,2.50
2019-05-30T12:09:23.423Z,3.08
2019-05-30T12:11:52.977Z,2.75
2019-05-30T12:14:21.529Z,2.95
2019-05-30T12:16:49.646Z,14.55
2019-05-30T12:19:17.919Z,8.33
2019-05-30T12:21:46.208Z,2.80
2019-05-30T12:24:14.529Z,3.10
2019-05-30T12:26:42.841Z,2.60
2019-05-30T12:29:11.083Z,4.42
2019-05-30T12:31:39.412Z,18.10
2019-05-30T12:34:07.661Z,14.18
2019-05-30T12:36:35.935Z,13.90
2019-05-30T12:39:06.428Z,5.67
2019-05-30T12:41:34.685Z,3.30
2019-05-30T12:44:03.361Z,5.00
2019-05-30T12:46:31.788Z,2.60
2019-05-30T12:49:01.442Z,2.02
2019-05-30T12:51:29.939Z,2.00
2019-05-30T12:53:58.509Z,1.80
2019-05-30T12:56:26.896Z,2.05
2019-05-30T12:58:55.165Z,2.47
2019-05-30T13:01:26.790Z,1.87
2019-05-30T13:03:53.397Z,2.00
2019-05-30T13:06:22.815Z,1.70
2019-05-30T13:08:51.071Z,1.92
2019-05-30T13:11:19.326Z,2.40
2019-05-30T13:13:47.588Z,2.02
2019-05-30T13:16:15.817Z,1.80
2019-05-30T13:18:44.086Z,1.80
2019-05-30T13:21:12.325Z,2.17
2019-05-30T13:23:40.598Z,1.80
2019-05-30T13:26:08.838Z,1.77
2019-05-30T13:28:37.071Z,1.80
2019-05-30T13:31:06.973Z,2.12
2019-05-30T13:33:38.378Z,1.82
2019-05-30T13:36:05.560Z,2.05
2019-05-30T13:38:33.821Z,1.87
2019-05-30T13:41:02.085Z,1.80
2019-05-30T13:43:30.325Z,1.85
2019-05-30T13:45:58.571Z,2.00
2019-05-30T13:48:26.824Z,1.90
2019-05-30T13:50:55.107Z,1.90
2019-05-30T13:53:23.355Z,3.45
2019-05-30T13:55:51.613Z,18.65
2019-05-30T13:58:19.873Z,2.58
2019-05-30T14:00:48.117Z,3.90
2019-05-30T14:03:16.387Z,3.22
2019-05-30T14:05:44.615Z,2.40
2019-05-30T14:08:16.488Z,1.92
2019-05-30T14:10:42.899Z,1.70
2019-05-30T14:13:11.363Z,2.02
2019-05-30T14:15:39.697Z,2.17
2019-05-30T14:18:09.024Z,2.20
2019-05-30T14:20:37.395Z,1.98
2019-05-30T14:23:05.675Z,1.90
2019-05-30T14:25:33.948Z,1.70
2019-05-30T14:28:04.041Z,1.82
2019-05-30T14:30:32.211Z,1.87
2019-05-30T14:33:01.982Z,1.60
2019-05-30T14:35:30.388Z,1.80
2019-05-30T14:37:58.628Z,1.65
2019-05-30T14:40:30.002Z,2.02
2019-05-30T14:42:58.278Z,2.10
2019-05-30T14:45:28.018Z,1.90
2019-05-30T14:47:56.452Z,2.00
2019-05-30T14:50:26.371Z,1.92
2019-05-30T14:52:54.637Z,2.00
2019-05-30T14:55:22.893Z,3.15
2019-05-30T14:57:51.138Z,8.83
2019-05-30T15:00:20.748Z,3.60
2019-05-30T15:03:26.120Z,1.80
2019-05-30T15:06:08.551Z,1.67
2019-05-30T15:08:48.236Z,1.75
2019-05-30T15:11:16.585Z,1.65
2019-05-30T15:13:44.881Z,2.22
2019-05-30T15:16:13.160Z,5.65
2019-05-30T15:18:41.456Z,6.65
2019-05-30T15:21:10.323Z,2.00
2019-05-30T15:23:38.712Z,2.08
2019-05-30T15:26:07.868Z,1.85
2019-05-30T15:28:36.321Z,1.95
2019-05-30T15:31:04.575Z,6.90
2019-05-30T15:33:32.832Z,4.10
2019-05-30T15:36:01.128Z,3.42
2019-05-30T15:38:29.393Z,3.80
2019-05-30T15:40:57.741Z,2.80
2019-05-30T15:43:25.984Z,2.75
2019-05-30T15:45:54.243Z,7.53
2019-05-30T15:48:22.496Z,2.72
2019-05-30T15:50:50.764Z,1.90
2019-05-30T15:53:19.807Z,1.80
2019-05-30T15:55:50.566Z,1.70
2019-05-30T15:58:20.493Z,1.98
2019-05-30T16:00:49.013Z,2.08
2019-05-30T16:03:18.419Z,1.70
2019-05-30T16:05:46.836Z,2.17
2019-05-30T16:08:15.148Z,4.08
2019-05-30T16:10:43.386Z,12.58
2019-05-30T16:13:11.655Z,5.50
2019-05-30T16:15:39.888Z,3.40
2019-05-30T16:18:08.152Z,2.50
2019-05-30T16:20:36.439Z,2.12
2019-05-30T16:23:04.687Z,7.20
2019-05-30T16:25:32.953Z,17.90
2019-05-30T16:28:01.185Z,6.10
2019-05-30T16:30:29.410Z,2.60
2019-05-30T16:32:57.667Z,1.90
2019-05-30T16:35:26.477Z,13.00
2019-05-30T16:37:54.921Z,11.80
2019-05-30T16:40:23.206Z,6.90
2019-05-30T16:42:51.468Z,4.95
2019-05-30T16:45:24.638Z,6.03
2019-05-30T16:47:49.789Z,3.22
2019-05-30T16:50:19.047Z,2.40
2019-05-30T16:52:47.545Z,2.00
2019-05-30T16:55:17.096Z,1.90
2019-05-30T16:57:45.605Z,1.60
2019-05-30T17:00:15.854Z,1.80
2019-05-30T17:02:44.125Z,2.00
2019-05-30T17:05:12.384Z,2.25
2019-05-30T17:07:40.674Z,2.10
2019-05-30T17:10:22.378Z,1.80
2019-05-30T17:12:38.960Z,2.10
2019-05-30T17:15:08.362Z,2.05
2019-05-30T17:17:36.651Z,2.00
2019-05-30T17:20:12.541Z,2.10
2019-05-30T17:22:40.803Z,1.90
2019-05-30T17:25:10.217Z,2.02
2019-05-30T17:27:38.479Z,2.33
2019-05-30T17:30:07.266Z,1.90
2019-05-30T17:32:35.505Z,2.30
2019-05-30T17:35:06.417Z,2.30
2019-05-30T17:37:34.739Z,2.58
2019-05-30T17:40:04.728Z,2.33
2019-05-30T17:42:36.025Z,2.20
2019-05-30T17:45:08.481Z,19.17
2019-05-30T17:47:36.717Z,16.70
2019-05-30T17:50:13.897Z,5.08
2019-05-30T17:52:42.164Z,2.60
2019-05-30T17:55:10.418Z,2.65
2019-05-30T17:57:38.673Z,7.70
2019-05-30T18:00:11.121Z,22.58
2019-05-30T18:02:40.160Z,4.72
2019-05-30T18:05:08.427Z,2.40
2019-05-30T18:07:36.668Z,2.55
2019-05-30T18:10:07.800Z,2.42
2019-05-30T18:12:36.133Z,2.12
2019-05-30T18:15:09.836Z,2.37
2019-05-30T18:17:38.103Z,2.25
2019-05-30T18:20:09.473Z,2.30
2019-05-30T18:22:37.793Z,2.50
2019-05-30T18:25:06.484Z,2.20
2019-05-30T18:27:34.760Z,2.50
2019-05-30T18:30:03.647Z,2.35
2019-05-30T18:32:32.652Z,2.27
2019-05-30T18:35:00.924Z,2.37
2019-05-30T18:37:30.404Z,2.22
2019-05-30T18:39:58.813Z,2.50
2019-05-30T18:42:27.389Z,2.67
2019-05-30T18:44:55.705Z,3.05
2019-05-30T18:47:24.992Z,12.58
2019-05-30T18:49:53.409Z,22.02
2019-05-30T18:52:21.691Z,8.53
2019-05-30T18:54:49.965Z,4.45
2019-05-30T18:57:18.212Z,3.40
2019-05-30T18:59:46.482Z,3.50
2019-05-30T19:02:18.278Z,2.98
2019-05-30T19:04:44.862Z,4.37
2019-05-30T19:07:13.118Z,3.35
2019-05-30T19:09:41.346Z,5.00
2019-05-30T19:12:09.609Z,4.22
2019-05-30T19:14:37.876Z,4.03
2019-05-30T19:17:06.113Z,3.62
2019-05-30T19:19:34.347Z,7.80
2019-05-30T19:22:02.682Z,22.37
2019-05-30T19:24:32.081Z,14.73
2019-05-30T19:27:00.412Z,7.58
2019-05-30T19:29:28.989Z,3.83
2019-05-30T19:31:57.294Z,3.67
2019-05-30T19:34:26.559Z,3.60
2019-05-30T19:36:54.900Z,4.85
2019-05-30T19:39:23.163Z,4.60
2019-05-30T19:41:57.056Z,4.35
2019-05-30T19:44:21.387Z,3.52
2019-05-30T19:46:49.660Z,4.20
2019-05-30T19:49:17.965Z,4.05
2019-05-30T19:51:47.233Z,4.05
2019-05-30T19:54:15.550Z,4.10
2019-05-30T19:56:43.824Z,3.45
2019-05-30T19:59:12.060Z,3.83
2019-05-30T20:01:40.100Z,3.90
2019-05-30T20:04:08.166Z,4.30
2019-05-30T20:06:36.589Z,4.40
2019-05-30T20:09:06.012Z,4.60
2019-05-30T20:11:35.210Z,4.85
2019-05-30T20:14:03.350Z,4.65
2019-05-30T20:16:33.778Z,4.60
2019-05-30T20:19:01.893Z,4.67
2019-05-30T20:21:29.905Z,4.12
2019-05-30T20:23:59.509Z,4.35
2019-05-30T20:26:27.672Z,4.25
2019-05-30T20:28:55.692Z,3.98
2019-05-30T20:31:23.722Z,4.05
2019-05-30T20:33:51.731Z,3.75
2019-05-30T20:36:19.764Z,4.33
2019-05-30T20:38:47.765Z,4.28
2019-05-30T20:41:15.751Z,4.40
2019-05-30T20:43:43.768Z,4.35
2019-05-30T20:46:22.732Z,4.40
2019-05-30T20:48:43.658Z,4.40
2019-05-30T20:51:20.825Z,4.92
2019-05-30T20:53:41.256Z,5.28
2019-05-30T20:56:09.367Z,4.90
2019-05-30T20:58:37.553Z,4.70
2019-05-30T21:01:05.715Z,4.97
2019-05-30T21:03:33.817Z,4.35
2019-05-30T21:06:01.815Z,4.70
2019-05-30T21:08:29.823Z,3.98
2019-05-30T21:10:58.108Z,4.55
2019-05-30T21:13:26.743Z,3.90
2019-05-30T21:15:54.759Z,4.28
2019-05-30T21:18:22.836Z,4.50
2019-05-30T21:20:51.107Z,4.10
2019-05-30T21:23:19.343Z,4.55
2019-05-30T21:25:47.651Z,4.42
2019-05-30T21:28:15.930Z,4.40
2019-05-30T21:30:45.303Z,4.35
2019-05-30T21:33:13.717Z,4.37
2019-05-30T21:35:42.040Z,4.30
2019-05-30T21:38:13.192Z,4.70
2019-05-30T21:40:42.459Z,4.95
2019-05-30T21:43:13.838Z,4.70
2019-05-30T21:45:42.546Z,5.12
2019-05-30T21:48:10.935Z,5.28
2019-05-30T21:50:40.925Z,4.92
2019-05-30T21:53:09.150Z,5.50
2019-05-30T22:01:21.388Z,3.95
2019-05-30T22:03:50.996Z,4.00
2019-05-30T22:06:19.479Z,4.17
2019-05-30T22:08:47.807Z,3.40
2019-05-30T22:11:16.036Z,3.80
2019-05-30T22:13:45.292Z,3.70
2019-05-30T22:16:13.824Z,3.42
2019-05-30T22:18:42.073Z,3.42
2019-05-30T22:21:10.337Z,3.52
2019-05-30T22:23:38.581Z,3.02
2019-05-30T22:26:07.388Z,3.17
2019-05-30T22:28:35.629Z,3.40
2019-05-30T22:31:03.885Z,3.30
2019-05-30T22:33:32.125Z,2.92
2019-05-30T22:36:00.383Z,2.95
2019-05-30T22:38:28.638Z,3.27
2019-05-30T22:40:56.882Z,2.90
2019-05-30T22:43:25.741Z,2.98
2019-05-30T22:45:54.084Z,3.08
2019-05-30T22:48:22.329Z,3.10
2019-05-30T22:50:50.735Z,3.27
2019-05-30T22:53:19.122Z,3.30
2019-05-30T22:55:47.373Z,3.25
2019-05-30T22:58:15.610Z,3.27
2019-05-30T23:00:43.873Z,3.40
2019-05-30T23:03:12.132Z,3.27
2019-05-30T23:05:40.383Z,3.50
2019-05-30T23:08:08.641Z,3.17
2019-05-30T23:10:36.884Z,2.70
2019-05-30T23:13:05.181Z,3.30
2019-05-30T23:15:33.458Z,3.10
2019-05-30T23:18:01.744Z,3.30
2019-05-30T23:20:30.030Z,3.12
2019-05-30T23:22:58.282Z,3.02
2019-05-30T23:25:26.542Z,3.10
2019-05-30T23:27:55.633Z,3.08
2019-05-30T23:30:24.036Z,3.17
2019-05-30T23:32:52.276Z,3.10
2019-05-30T23:35:20.537Z,3.00
2019-05-30T23:37:48.788Z,2.80
2019-05-30T23:40:17.041Z,2.52
2019-05-30T23:42:45.306Z,2.65
2019-05-30T23:45:13.543Z,2.70
2019-05-30T23:47:41.805Z,2.30
2019-05-30T23:50:10.072Z,2.77
2019-05-30T23:52:38.308Z,2.90
2019-05-30T23:55:06.608Z,2.60
2019-05-30T23:57:34.839Z,2.40
